createdAt,value
2023-05-14T00:02:23.287Z,65.02
2023-05-14T00:04:55.664Z,64.37
2023-05-14T00:07:30.913Z,64.63
2023-05-14T00:10:03.439Z,64.07
2023-05-14T00:12:35.662Z,64.95
2023-05-14T00:15:08.244Z,64.62
2023-05-14T00:17:40.649Z,64.83
2023-05-14T00:20:12.859Z,64.50
2023-05-14T00:22:45.160Z,64.67
2023-05-14T00:25:17.509Z,64.61
2023-05-14T00:27:49.680Z,65.07
2023-05-14T00:30:22.212Z,64.59
2023-05-14T00:32:54.511Z,64.28
2023-05-14T00:35:26.604Z,64.66
2023-05-14T00:37:58.833Z,64.85
2023-05-14T00:40:31.173Z,64.53
2023-05-14T00:43:03.807Z,64.48
2023-05-14T00:45:36.022Z,64.15
2023-05-14T00:48:08.432Z,64.52
2023-05-14T00:50:40.921Z,64.12
2023-05-14T00:53:13.448Z,64.73
2023-05-14T00:55:46.949Z,64.59
2023-05-14T00:58:19.582Z,64.42
2023-05-14T01:00:52.290Z,63.90
2023-05-14T01:03:24.490Z,64.89
2023-05-14T01:05:57.222Z,64.62
2023-05-14T01:08:49.378Z,64.19
2023-05-14T01:11:27.679Z,64.10
2023-05-14T01:14:02.830Z,64.00
2023-05-14T01:16:37.434Z,64.09
2023-05-14T01:19:10.648Z,64.40
2023-05-14T01:21:43.537Z,64.40
2023-05-14T01:24:17.188Z,64.29
2023-05-14T01:26:49.617Z,64.52
2023-05-14T01:29:22.565Z,65.00
2023-05-14T01:31:55.678Z,64.52
2023-05-14T01:34:29.453Z,63.97
2023-05-14T01:37:02.098Z,63.97
2023-05-14T01:39:37.946Z,64.50
2023-05-14T01:42:11.055Z,64.75
2023-05-14T01:44:43.337Z,64.90
2023-05-14T01:47:15.695Z,64.88
2023-05-14T01:49:47.953Z,64.09
2023-05-14T01:52:21.279Z,64.59
2023-05-14T01:54:53.344Z,64.36
2023-05-14T01:57:25.672Z,64.32
2023-05-14T01:59:57.815Z,64.29
2023-05-14T02:02:30.054Z,64.05
2023-05-14T02:05:02.679Z,63.99
2023-05-14T02:07:35.636Z,64.33
2023-05-14T02:10:08.084Z,64.60
2023-05-14T02:12:40.244Z,64.29
2023-05-14T02:15:12.871Z,64.75
2023-05-14T02:17:45.126Z,64.81
2023-05-14T02:20:17.251Z,63.81
2023-05-14T02:22:50.025Z,63.75
2023-05-14T02:25:22.554Z,63.96
2023-05-14T02:27:54.689Z,64.90
2023-05-14T02:30:26.950Z,64.75
2023-05-14T02:32:59.547Z,64.71
2023-05-14T02:35:31.728Z,64.89
2023-05-14T02:38:04.684Z,64.89
2023-05-14T02:40:37.153Z,64.20
2023-05-14T02:43:09.956Z,64.20
2023-05-14T02:45:42.182Z,64.82
2023-05-14T02:48:14.414Z,63.88
2023-05-14T02:50:46.979Z,64.27
2023-05-14T02:53:19.308Z,64.27
2023-05-14T02:55:51.576Z,64.33
2023-05-14T02:58:27.158Z,64.40
2023-05-14T03:01:00.732Z,64.26
2023-05-14T03:03:33.910Z,64.19
2023-05-14T03:06:06.606Z,64.08
2023-05-14T03:08:38.770Z,64.67
2023-05-14T03:11:11.468Z,64.00
2023-05-14T03:13:43.549Z,64.83
2023-05-14T03:16:15.860Z,64.05
2023-05-14T03:18:48.128Z,64.40
2023-05-14T03:21:20.298Z,64.27
2023-05-14T03:23:53.156Z,64.79
2023-05-14T03:26:25.369Z,64.13
2023-05-14T03:28:58.319Z,64.37
2023-05-14T03:31:30.690Z,64.65
2023-05-14T03:34:02.797Z,64.21
2023-05-14T03:36:36.394Z,64.40
2023-05-14T03:39:09.531Z,64.52
2023-05-14T03:41:41.833Z,64.50
2023-05-14T03:44:14.229Z,64.62
2023-05-14T03:46:46.409Z,64.23
2023-05-14T03:49:18.549Z,63.89
2023-05-14T03:51:50.865Z,64.58
2023-05-14T03:54:23.100Z,64.09
2023-05-14T03:56:55.300Z,63.84
2023-05-14T03:59:27.819Z,64.10
2023-05-14T04:02:00.060Z,64.36
2023-05-14T04:04:32.367Z,63.94
2023-05-14T04:07:04.693Z,64.25
2023-05-14T04:09:36.876Z,64.08
2023-05-14T04:12:09.330Z,64.11
2023-05-14T04:14:41.407Z,64.36
2023-05-14T04:17:13.589Z,64.04
2023-05-14T04:19:45.700Z,64.13
2023-05-14T04:22:17.830Z,64.48
2023-05-14T04:24:49.926Z,63.91
2023-05-14T04:27:22.497Z,64.71
2023-05-14T04:29:54.782Z,64.38
2023-05-14T04:32:27.093Z,64.00
2023-05-14T04:34:59.187Z,63.99
2023-05-14T04:37:31.874Z,63.92
2023-05-14T04:40:04.794Z,64.02
2023-05-14T04:42:37.260Z,64.44
2023-05-14T04:45:09.946Z,64.26
2023-05-14T04:47:42.257Z,64.06
2023-05-14T04:50:14.550Z,63.84
2023-05-14T04:52:46.775Z,64.34
2023-05-14T04:55:20.399Z,64.22
2023-05-14T04:57:52.532Z,63.84
2023-05-14T05:00:25.430Z,64.50
2023-05-14T05:02:57.972Z,64.48
2023-05-14T05:05:31.355Z,63.91
2023-05-14T05:08:03.787Z,64.23
2023-05-14T05:10:36.077Z,64.43
2023-05-14T05:13:08.230Z,64.00
2023-05-14T05:15:40.353Z,64.38
2023-05-14T05:18:12.510Z,64.35
2023-05-14T05:20:44.583Z,63.81
2023-05-14T05:23:16.746Z,63.64
2023-05-14T05:25:49.133Z,63.82
2023-05-14T05:28:21.329Z,63.96
2023-05-14T05:30:53.489Z,64.06
2023-05-14T05:33:25.714Z,64.05
2023-05-14T05:35:57.808Z,63.89
2023-05-14T05:38:29.983Z,63.99
2023-05-14T05:41:02.247Z,63.93
2023-05-14T05:43:34.414Z,64.19
2023-05-14T05:46:07.297Z,63.87
2023-05-14T05:48:39.437Z,64.07
2023-05-14T05:51:11.795Z,64.25
2023-05-14T05:53:43.896Z,63.74
2023-05-14T05:56:16.061Z,64.28
2023-05-14T05:58:48.330Z,64.18
2023-05-14T06:01:20.655Z,64.27
2023-05-14T06:03:53.147Z,63.93
2023-05-14T06:06:25.418Z,63.92
2023-05-14T06:08:57.516Z,63.81
2023-05-14T06:11:29.620Z,63.99
2023-05-14T06:14:01.828Z,64.64
2023-05-14T06:16:34.072Z,63.91
2023-05-14T06:19:06.495Z,63.91
2023-05-14T06:21:38.674Z,64.08
2023-05-14T06:24:11.005Z,64.24
2023-05-14T06:26:43.304Z,64.20
2023-05-14T06:29:16.465Z,63.83
2023-05-14T06:31:48.638Z,64.63
2023-05-14T06:34:21.037Z,63.79
2023-05-14T06:36:53.176Z,64.50
2023-05-14T06:39:25.686Z,64.02
2023-05-14T06:41:58.246Z,64.50
2023-05-14T06:44:30.427Z,64.17
2023-05-14T06:47:02.620Z,64.29
2023-05-14T06:49:35.486Z,63.98
2023-05-14T06:52:08.337Z,63.88
2023-05-14T06:54:40.539Z,64.52
2023-05-14T06:57:12.888Z,64.34
2023-05-14T06:59:45.019Z,64.71
2023-05-14T07:02:17.264Z,63.73
2023-05-14T07:04:49.378Z,64.12
2023-05-14T07:07:21.646Z,64.33
2023-05-14T07:09:53.848Z,64.59
2023-05-14T07:12:25.992Z,64.43
2023-05-14T07:14:58.146Z,64.59
2023-05-14T07:17:30.414Z,64.89
2023-05-14T07:20:02.931Z,64.57
2023-05-14T07:22:35.115Z,64.06
2023-05-14T07:25:07.887Z,64.19
2023-05-14T07:27:41.027Z,64.67
2023-05-14T07:30:13.359Z,64.29
2023-05-14T07:32:45.920Z,64.82
2023-05-14T07:35:18.289Z,64.78
2023-05-14T07:37:50.669Z,64.73
2023-05-14T07:40:25.371Z,64.71
2023-05-14T07:42:59.255Z,64.90
2023-05-14T07:45:31.602Z,64.68
2023-05-14T07:48:03.838Z,64.29
2023-05-14T07:50:36.810Z,64.71
2023-05-14T07:53:08.926Z,64.03
2023-05-14T07:55:42.118Z,64.19
2023-05-14T07:58:14.218Z,64.26
2023-05-14T08:00:46.359Z,64.26
2023-05-14T08:03:18.880Z,64.23
2023-05-14T08:05:51.901Z,64.93
2023-05-14T08:08:23.983Z,64.78
2023-05-14T08:10:56.336Z,64.75
2023-05-14T08:13:28.544Z,64.59
2023-05-14T08:16:00.909Z,64.21
2023-05-14T08:18:33.038Z,63.88
2023-05-14T08:21:05.450Z,64.46
2023-05-14T08:23:37.620Z,64.23
2023-05-14T08:26:09.998Z,64.29
2023-05-14T08:28:42.248Z,63.90
2023-05-14T08:31:15.850Z,63.89
2023-05-14T08:33:48.326Z,64.53
2023-05-14T08:36:20.647Z,64.26
2023-05-14T08:38:52.968Z,64.91
2023-05-14T08:41:25.506Z,64.43
2023-05-14T08:44:05.532Z,64.17
2023-05-14T08:46:38.858Z,64.32
2023-05-14T08:49:17.384Z,64.45
2023-05-14T08:51:51.339Z,63.76
2023-05-14T08:54:26.378Z,64.07
2023-05-14T08:56:59.442Z,63.95
2023-05-14T08:59:31.929Z,64.02
2023-05-14T09:02:06.344Z,63.90
2023-05-14T09:04:39.229Z,64.01
2023-05-14T09:07:12.101Z,64.59
2023-05-14T09:09:47.472Z,63.93
2023-05-14T09:12:20.091Z,64.32
2023-05-14T09:14:52.626Z,63.69
2023-05-14T09:17:27.906Z,64.46
2023-05-14T09:20:00.204Z,63.81
2023-05-14T09:22:32.870Z,63.55
2023-05-14T09:25:06.568Z,64.02
2023-05-14T09:27:39.507Z,64.05
2023-05-14T09:30:13.216Z,63.93
2023-05-14T09:32:46.225Z,63.76
2023-05-14T09:35:20.162Z,63.88
2023-05-14T09:37:54.121Z,64.14
2023-05-14T09:40:26.684Z,64.14
2023-05-14T09:42:59.181Z,63.59
2023-05-14T09:45:31.961Z,64.25
2023-05-14T09:48:04.533Z,63.77
2023-05-14T09:50:43.516Z,63.95
2023-05-14T09:53:15.923Z,63.98
2023-05-14T09:55:49.412Z,64.05
2023-05-14T09:58:21.690Z,63.54
2023-05-14T10:00:55.244Z,63.49
2023-05-14T10:03:29.712Z,63.33
2023-05-14T10:06:05.018Z,63.49
2023-05-14T10:08:39.035Z,63.87
2023-05-14T10:11:15.757Z,63.98
2023-05-14T10:13:54.170Z,63.31
2023-05-14T10:16:26.503Z,63.64
2023-05-14T10:19:03.177Z,64.18
2023-05-14T10:21:37.926Z,63.51
2023-05-14T10:24:11.634Z,63.33
2023-05-14T10:26:45.184Z,63.27
2023-05-14T10:29:17.645Z,64.11
2023-05-14T10:31:51.392Z,63.69
2023-05-14T10:34:38.007Z,63.53
2023-05-14T10:37:11.409Z,63.64
2023-05-14T10:39:46.817Z,63.46
2023-05-14T10:42:19.215Z,62.94
2023-05-14T10:44:58.048Z,63.60
2023-05-14T10:47:31.417Z,63.10
2023-05-14T10:50:05.113Z,63.54
2023-05-14T10:52:37.284Z,63.11
2023-05-14T10:55:15.016Z,63.10
2023-05-14T10:57:47.514Z,63.21
2023-05-14T11:00:19.845Z,63.38
2023-05-14T11:02:55.420Z,63.15
2023-05-14T11:05:27.886Z,63.04
2023-05-14T11:08:02.093Z,63.00
2023-05-14T11:10:36.226Z,63.11
2023-05-14T11:13:08.626Z,63.04
2023-05-14T11:15:47.096Z,63.00
2023-05-14T11:18:28.834Z,63.06
2023-05-14T11:21:01.375Z,62.79
2023-05-14T11:23:33.625Z,63.45
2023-05-14T11:26:07.125Z,63.42
2023-05-14T11:28:40.943Z,63.14
2023-05-14T11:31:13.072Z,63.21
2023-05-14T11:33:45.252Z,63.43
2023-05-14T11:36:17.875Z,63.14
2023-05-14T11:38:51.601Z,63.18
2023-05-14T11:41:23.931Z,62.88
2023-05-14T11:43:56.122Z,62.98
2023-05-14T11:46:30.190Z,63.92
2023-05-14T11:49:04.706Z,62.97
2023-05-14T11:51:37.380Z,63.26
2023-05-14T11:54:09.520Z,62.78
2023-05-14T11:56:41.714Z,63.06
2023-05-14T11:59:17.013Z,62.89
2023-05-14T12:01:50.692Z,63.48
2023-05-14T12:04:23.243Z,62.85
2023-05-14T12:06:57.973Z,62.87
2023-05-14T12:09:30.133Z,62.89
2023-05-14T12:12:08.158Z,62.77
2023-05-14T12:14:42.629Z,62.93
2023-05-14T12:17:16.182Z,63.63
2023-05-14T12:19:49.710Z,62.91
2023-05-14T12:22:22.525Z,62.84
2023-05-14T12:24:54.788Z,62.71
2023-05-14T12:27:28.781Z,62.90
2023-05-14T12:30:27.481Z,63.31
2023-05-14T12:32:55.670Z,63.18
2023-05-14T12:35:28.108Z,62.87
2023-05-14T12:38:00.751Z,63.52
2023-05-14T12:40:33.117Z,63.14
2023-05-14T12:43:05.172Z,63.41
2023-05-14T12:49:31.391Z,63.00
2023-05-14T12:52:22.807Z,62.91
2023-05-14T12:54:58.555Z,62.96
2023-05-14T12:57:30.880Z,63.04
2023-05-14T13:00:07.041Z,62.40
2023-05-14T13:02:42.618Z,62.82
2023-05-14T13:05:16.084Z,62.87
2023-05-14T13:07:48.381Z,62.96
2023-05-14T13:10:20.628Z,62.77
2023-05-14T13:12:52.856Z,62.78
2023-05-14T13:15:26.300Z,62.04
2023-05-14T13:17:58.696Z,62.92
2023-05-14T13:20:31.727Z,61.89
2023-05-14T13:23:04.039Z,62.38
2023-05-14T13:25:36.663Z,61.85
2023-05-14T13:28:08.871Z,62.18
2023-05-14T13:30:41.015Z,62.37
2023-05-14T13:33:13.217Z,61.79
2023-05-14T13:35:45.909Z,61.72
2023-05-14T13:38:18.328Z,62.10
2023-05-14T13:40:50.592Z,61.66
2023-05-14T13:43:23.463Z,61.90
2023-05-14T13:45:56.283Z,62.26
2023-05-14T13:48:28.570Z,62.32
2023-05-14T13:51:00.787Z,62.15
2023-05-14T13:53:35.457Z,61.78
2023-05-14T13:56:08.697Z,61.81
2023-05-14T13:58:41.035Z,62.20
2023-05-14T14:01:13.173Z,62.04
2023-05-14T14:03:45.386Z,61.88
2023-05-14T14:06:17.510Z,60.99
2023-05-14T14:08:51.061Z,60.83
2023-05-14T14:11:23.248Z,60.65
2023-05-14T14:13:55.618Z,60.42
2023-05-14T14:16:28.035Z,60.42
2023-05-14T14:19:00.278Z,60.09
2023-05-14T14:21:32.891Z,60.29
2023-05-14T14:24:05.446Z,60.05
2023-05-14T14:26:37.918Z,60.34
2023-05-14T14:29:10.087Z,60.15
2023-05-14T14:31:43.630Z,60.09
2023-05-14T14:34:15.854Z,60.11
2023-05-14T14:36:47.985Z,59.89
2023-05-14T14:39:21.179Z,60.25
2023-05-14T14:41:53.406Z,60.17
2023-05-14T14:44:27.715Z,59.86
2023-05-14T14:47:00.268Z,59.71
2023-05-14T14:49:32.476Z,59.83
2023-05-14T14:52:04.819Z,60.03
2023-05-14T14:54:38.016Z,59.94
2023-05-14T14:57:10.569Z,59.40
2023-05-14T14:59:42.760Z,59.81
2023-05-14T15:02:15.169Z,59.78
2023-05-14T15:04:47.358Z,59.45
2023-05-14T15:07:20.520Z,59.69
2023-05-14T15:09:52.692Z,59.39
2023-05-14T15:12:24.827Z,59.12
2023-05-14T15:14:56.967Z,59.07
2023-05-14T15:17:29.396Z,59.03
2023-05-14T15:20:01.608Z,58.84
2023-05-14T15:22:35.409Z,58.79
2023-05-14T15:25:07.877Z,58.89
2023-05-14T15:27:40.064Z,59.02
2023-05-14T15:30:12.621Z,58.84
2023-05-14T15:32:45.688Z,59.05
2023-05-14T15:35:18.704Z,58.99
2023-05-14T15:37:51.370Z,58.72
2023-05-14T15:40:24.582Z,58.58
2023-05-14T15:42:56.936Z,58.76
2023-05-14T15:45:29.107Z,59.00
2023-05-14T15:48:01.360Z,58.84
2023-05-14T15:50:33.651Z,58.64
2023-05-14T15:53:05.948Z,58.55
2023-05-14T15:55:38.233Z,58.25
2023-05-14T15:58:10.516Z,58.15
2023-05-14T16:00:42.837Z,58.07
2023-05-14T16:03:15.167Z,57.95
2023-05-14T16:05:48.712Z,58.04
2023-05-14T16:08:20.830Z,58.03
2023-05-14T16:10:53.107Z,58.01
2023-05-14T16:13:25.451Z,58.15
2023-05-14T16:15:59.546Z,57.96
2023-05-14T16:18:33.301Z,57.88
2023-05-14T16:21:06.371Z,57.78
2023-05-14T16:23:40.583Z,58.02
2023-05-14T16:26:12.732Z,58.04
2023-05-14T16:28:44.795Z,57.79
2023-05-14T16:31:18.990Z,57.67
2023-05-14T16:33:51.139Z,57.71
2023-05-14T16:36:23.269Z,57.63
2023-05-14T16:39:07.281Z,57.50
2023-05-14T16:41:49.221Z,57.57
2023-05-14T16:44:21.454Z,57.54
2023-05-14T16:46:53.972Z,57.60
2023-05-14T16:49:26.275Z,57.57
2023-05-14T16:52:00.601Z,57.46
2023-05-14T16:54:32.737Z,57.37
2023-05-14T16:57:06.160Z,57.24
2023-05-14T16:59:38.769Z,57.13
2023-05-14T17:02:12.901Z,57.12
2023-05-14T17:04:45.275Z,56.95
2023-05-14T17:07:17.572Z,56.89
2023-05-14T17:09:49.826Z,56.85
2023-05-14T17:12:22.155Z,56.95
2023-05-14T17:14:54.423Z,56.94
2023-05-14T17:17:26.956Z,56.72
2023-05-14T17:20:00.198Z,56.84
2023-05-14T17:22:32.656Z,56.75
2023-05-14T17:25:05.572Z,56.80
2023-05-14T17:27:37.865Z,57.20
2023-05-14T17:30:11.609Z,57.11
2023-05-14T17:32:44.315Z,57.20
2023-05-14T17:35:16.719Z,56.78
2023-05-14T17:37:49.055Z,57.11
2023-05-14T17:40:21.789Z,57.02
2023-05-14T17:42:57.127Z,56.96
2023-05-14T17:45:36.508Z,57.07
2023-05-14T17:48:15.085Z,56.60
2023-05-14T17:50:48.637Z,56.83
2023-05-14T17:53:21.506Z,56.78
2023-05-14T17:55:53.595Z,56.80
2023-05-14T17:58:26.134Z,56.98
2023-05-14T18:00:58.806Z,56.80
2023-05-14T18:03:32.444Z,56.83
2023-05-14T18:06:04.851Z,56.75
2023-05-14T18:08:37.043Z,56.88
2023-05-14T18:11:09.395Z,57.11
2023-05-14T18:13:41.539Z,56.86
2023-05-14T18:16:13.939Z,57.03
2023-05-14T18:18:46.912Z,56.70
2023-05-14T18:21:19.172Z,57.00
2023-05-14T18:23:51.372Z,56.81
2023-05-14T18:26:23.897Z,56.95
2023-05-14T18:28:57.425Z,56.81
2023-05-14T18:31:29.682Z,56.60
2023-05-14T18:34:02.530Z,56.35
2023-05-14T18:36:34.939Z,56.59
2023-05-14T18:39:07.138Z,56.36
2023-05-14T18:41:40.782Z,56.78
2023-05-14T18:44:12.897Z,56.50
2023-05-14T18:46:45.637Z,56.69
2023-05-14T18:49:18.322Z,56.48
2023-05-14T18:51:50.810Z,56.59
2023-05-14T18:54:22.993Z,56.42
2023-05-14T18:56:55.752Z,56.72
2023-05-14T18:59:27.846Z,56.33
2023-05-14T19:02:00.912Z,56.51
2023-05-14T19:04:33.552Z,56.68
2023-05-14T19:07:06.361Z,56.95
2023-05-14T19:09:38.468Z,56.59
2023-05-14T19:12:10.657Z,56.57
2023-05-14T19:14:44.111Z,56.80
2023-05-14T19:17:20.624Z,56.84
2023-05-14T19:19:52.913Z,56.67
2023-05-14T19:22:25.115Z,56.54
2023-05-14T19:24:57.462Z,56.89
2023-05-14T19:27:29.654Z,56.64
2023-05-14T19:30:01.850Z,56.62
2023-05-14T19:32:34.045Z,56.52
2023-05-14T19:35:06.358Z,56.47
2023-05-14T19:37:38.493Z,56.61
2023-05-14T19:40:12.006Z,57.06
2023-05-14T19:42:44.234Z,56.92
2023-05-14T19:45:17.191Z,56.54
2023-05-14T19:47:49.660Z,56.72
2023-05-14T19:50:22.094Z,56.50
2023-05-14T19:52:57.392Z,56.92
2023-05-14T19:55:29.646Z,56.78
2023-05-14T19:58:05.036Z,56.93
2023-05-14T20:00:37.484Z,56.61
2023-05-14T20:03:13.887Z,56.33
2023-05-14T20:05:46.672Z,56.95
2023-05-14T20:08:20.813Z,56.96
2023-05-14T20:10:52.946Z,56.66
2023-05-14T20:13:25.452Z,56.25
2023-05-14T20:15:58.765Z,56.73
2023-05-14T20:18:31.329Z,56.53
2023-05-14T20:21:04.434Z,56.81
2023-05-14T20:23:36.805Z,56.50
2023-05-14T20:26:09.105Z,56.74
2023-05-14T20:28:43.496Z,56.70
2023-05-14T20:31:15.689Z,56.10
2023-05-14T20:33:48.646Z,56.35
2023-05-14T20:36:20.784Z,56.27
2023-05-14T20:38:53.190Z,56.46
2023-05-14T20:41:26.533Z,56.38
2023-05-14T20:43:58.910Z,56.58
2023-05-14T20:46:31.087Z,56.67
2023-05-14T20:49:04.351Z,56.59
2023-05-14T20:51:37.123Z,55.94
2023-05-14T20:54:09.691Z,56.23
2023-05-14T20:56:43.136Z,56.41
2023-05-14T20:59:15.312Z,56.72
2023-05-14T21:01:47.608Z,56.87
2023-05-14T21:04:20.618Z,56.32
2023-05-14T21:06:52.887Z,56.76
2023-05-14T21:09:28.155Z,56.92
2023-05-14T21:12:03.403Z,56.62
2023-05-14T21:14:36.155Z,56.67
2023-05-14T21:17:08.763Z,56.96
2023-05-14T21:19:42.794Z,57.03
2023-05-14T21:22:15.724Z,56.53
2023-05-14T21:24:49.545Z,57.07
2023-05-14T21:27:24.906Z,56.41
2023-05-14T21:29:57.534Z,57.17
2023-05-14T21:32:31.257Z,57.01
2023-05-14T21:35:05.346Z,57.31
2023-05-14T21:37:40.559Z,57.40
2023-05-14T21:40:13.073Z,57.00
2023-05-14T21:42:46.246Z,57.09
2023-05-14T21:45:18.629Z,57.35
2023-05-14T21:47:52.569Z,57.15
2023-05-14T21:50:24.914Z,56.84
2023-05-14T21:52:57.406Z,57.38
2023-05-14T21:55:29.888Z,57.16
2023-05-14T21:58:07.231Z,57.08
2023-05-14T22:00:40.644Z,57.38
2023-05-14T22:03:13.083Z,56.98
2023-05-14T22:05:45.688Z,57.52
2023-05-14T22:08:18.325Z,57.32
2023-05-14T22:10:52.476Z,57.65
2023-05-14T22:13:24.615Z,57.19
2023-05-14T22:16:12.278Z,57.41
2023-05-14T22:18:47.596Z,57.40
2023-05-14T22:21:19.986Z,57.46
2023-05-14T22:23:52.838Z,57.26
2023-05-14T22:26:25.149Z,57.12
2023-05-14T22:28:58.025Z,57.83
2023-05-14T22:31:30.724Z,57.70
2023-05-14T22:34:04.238Z,57.23
2023-05-14T22:36:36.493Z,57.76
2023-05-14T22:39:09.304Z,58.04
2023-05-14T22:41:45.929Z,57.86
2023-05-14T22:44:19.125Z,57.25
2023-05-14T22:46:51.368Z,57.89
2023-05-14T22:49:23.745Z,57.56
2023-05-14T22:51:55.839Z,58.10
2023-05-14T22:54:30.560Z,57.76
2023-05-14T22:57:18.621Z,58.04
2023-05-14T22:59:50.862Z,57.80
2023-05-14T23:02:23.556Z,58.07
2023-05-14T23:04:56.155Z,57.97
2023-05-14T23:07:28.490Z,57.94
2023-05-14T23:10:00.924Z,57.95
2023-05-14T23:12:33.754Z,58.10
2023-05-14T23:15:06.301Z,57.86
2023-05-14T23:17:38.742Z,57.92
2023-05-14T23:20:12.763Z,58.11
2023-05-14T23:22:45.111Z,58.10
2023-05-14T23:25:17.462Z,58.22
2023-05-14T23:27:50.085Z,58.35
2023-05-14T23:30:22.283Z,57.64
2023-05-14T23:32:55.236Z,58.37
2023-05-14T23:35:28.163Z,58.35
2023-05-14T23:38:22.361Z,58.35
2023-05-14T23:40:58.009Z,58.43
2023-05-14T23:43:35.799Z,57.95
2023-05-14T23:46:08.953Z,58.33
2023-05-14T23:48:41.249Z,58.53
2023-05-14T23:51:13.434Z,58.36
2023-05-14T23:53:45.875Z,58.12
2023-05-14T23:56:19.014Z,57.88
2023-05-14T23:58:51.417Z,58.41
